sensor_id;sensor_type;location;lat;lon;timestamp;pressure;altitude;pressure_sealevel;temperature;humidity
4570;BME280;2297;51.442;6.996;2024-01-10T00:01:00;101691.78;;;-0.73;29.16
4570;BME280;2297;51.442;6.996;2024-01-10T00:03:28;101692.50;;;-0.75;28.97
4570;BME280;2297;51.442;6.996;2024-01-10T00:05:54;101688.97;;;-0.77;28.93
4570;BME280;2297;51.442;6.996;2024-01-10T00:08:21;101687.19;;;-0.78;28.93
4570;BME280;2297;51.442;6.996;2024-01-10T00:10:49;101692.25;;;-0.81;29.01
4570;BME280;2297;51.442;6.996;2024-01-10T00:13:15;101692.88;;;-0.86;29.00
4570;BME280;2297;51.442;6.996;2024-01-10T00:15:42;101687.69;;;-0.86;28.93
4570;BME280;2297;51.442;6.996;2024-01-10T00:18:09;101689.84;;;-0.95;28.97
4570;BME280;2297;51.442;6.996;2024-01-10T00:20:35;101679.41;;;-0.96;29.06
4570;BME280;2297;51.442;6.996;2024-01-10T00:23:02;101679.78;;;-0.89;28.93
4570;BME280;2297;51.442;6.996;2024-01-10T00:25:29;101687.41;;;-0.92;28.96
4570;BME280;2297;51.442;6.996;2024-01-10T00:27:56;101682.00;;;-0.78;28.63
4570;BME280;2297;51.442;6.996;2024-01-10T00:30:25;101674.94;;;-0.81;28.84
4570;BME280;2297;51.442;6.996;2024-01-10T00:32:52;101673.22;;;-0.80;28.84
4570;BME280;2297;51.442;6.996;2024-01-10T00:35:18;101673.78;;;-0.88;28.75
4570;BME280;2297;51.442;6.996;2024-01-10T00:37:45;101677.97;;;-0.90;28.94
4570;BME280;2297;51.442;6.996;2024-01-10T00:40:12;101670.75;;;-0.79;28.91
4570;BME280;2297;51.442;6.996;2024-01-10T00:42:38;101670.81;;;-0.77;29.00
4570;BME280;2297;51.442;6.996;2024-01-10T00:45:07;101672.56;;;-0.76;29.02
4570;BME280;2297;51.442;6.996;2024-01-10T00:47:34;101676.66;;;-0.81;28.76
4570;BME280;2297;51.442;6.996;2024-01-10T00:50:00;101667.78;;;-0.87;28.85
4570;BME280;2297;51.442;6.996;2024-01-10T00:52:27;101666.13;;;-0.84;28.82
4570;BME280;2297;51.442;6.996;2024-01-10T00:54:53;101667.34;;;-0.96;28.93
4570;BME280;2297;51.442;6.996;2024-01-10T00:57:20;101666.72;;;-0.90;28.92
4570;BME280;2297;51.442;6.996;2024-01-10T00:59:47;101662.59;;;-0.87;28.81
4570;BME280;2297;51.442;6.996;2024-01-10T01:05:24;101660.72;;;-0.89;28.88
4570;BME280;2297;51.442;6.996;2024-01-10T01:07:51;101660.00;;;-0.87;28.61
4570;BME280;2297;51.442;6.996;2024-01-10T01:10:18;101657.09;;;-0.75;28.77
4570;BME280;2297;51.442;6.996;2024-01-10T01:12:44;101652.47;;;-0.80;28.57
4570;BME280;2297;51.442;6.996;2024-01-10T01:15:11;101661.97;;;-0.81;28.60
4570;BME280;2297;51.442;6.996;2024-01-10T01:17:38;101662.72;;;-0.83;28.56
4570;BME280;2297;51.442;6.996;2024-01-10T01:20:05;101658.88;;;-0.92;28.87
4570;BME280;2297;51.442;6.996;2024-01-10T01:22:33;101656.66;;;-1.02;28.90
4570;BME280;2297;51.442;6.996;2024-01-10T01:25:00;101647.81;;;-1.06;28.64
4570;BME280;2297;51.442;6.996;2024-01-10T01:27:27;101647.41;;;-0.97;28.82
4570;BME280;2297;51.442;6.996;2024-01-10T01:29:54;101650.00;;;-0.97;28.72
4570;BME280;2297;51.442;6.996;2024-01-10T01:32:20;101643.69;;;-1.02;28.94
4570;BME280;2297;51.442;6.996;2024-01-10T01:34:47;101651.22;;;-0.89;28.59
4570;BME280;2297;51.442;6.996;2024-01-10T01:37:14;101640.84;;;-0.89;28.39
4570;BME280;2297;51.442;6.996;2024-01-10T01:39:42;101640.72;;;-0.92;28.80
4570;BME280;2297;51.442;6.996;2024-01-10T01:42:08;101645.09;;;-0.91;28.71
4570;BME280;2297;51.442;6.996;2024-01-10T01:44:35;101632.63;;;-0.98;28.64
4570;BME280;2297;51.442;6.996;2024-01-10T01:47:01;101629.53;;;-0.91;28.53
4570;BME280;2297;51.442;6.996;2024-01-10T01:49:29;101629.38;;;-0.94;28.63
4570;BME280;2297;51.442;6.996;2024-01-10T01:51:56;101634.88;;;-0.88;28.64
4570;BME280;2297;51.442;6.996;2024-01-10T01:54:23;101631.41;;;-0.88;28.66
4570;BME280;2297;51.442;6.996;2024-01-10T01:56:52;101628.50;;;-0.94;28.65
4570;BME280;2297;51.442;6.996;2024-01-10T01:59:19;101621.38;;;-0.98;28.56
4570;BME280;2297;51.442;6.996;2024-01-10T02:01:45;101621.97;;;-1.04;28.78
4570;BME280;2297;51.442;6.996;2024-01-10T02:04:12;101625.69;;;-1.17;28.84
4570;BME280;2297;51.442;6.996;2024-01-10T02:06:39;101625.09;;;-1.11;28.93
4570;BME280;2297;51.442;6.996;2024-01-10T02:09:05;101635.47;;;-1.11;29.06
4570;BME280;2297;51.442;6.996;2024-01-10T02:11:33;101626.72;;;-1.13;29.19
4570;BME280;2297;51.442;6.996;2024-01-10T02:14:01;101637.31;;;-1.09;29.20
4570;BME280;2297;51.442;6.996;2024-01-10T02:16:28;101619.22;;;-1.07;29.32
4570;BME280;2297;51.442;6.996;2024-01-10T02:18:55;101627.44;;;-0.98;29.14
4570;BME280;2297;51.442;6.996;2024-01-10T02:21:22;101632.34;;;-1.04;29.12
4570;BME280;2297;51.442;6.996;2024-01-10T02:23:49;101622.88;;;-1.22;29.23
4570;BME280;2297;51.442;6.996;2024-01-10T02:26:17;101621.75;;;-1.27;29.38
4570;BME280;2297;51.442;6.996;2024-01-10T02:28:43;101623.91;;;-1.18;29.65
4570;BME280;2297;51.442;6.996;2024-01-10T02:31:10;101627.00;;;-1.07;29.33
4570;BME280;2297;51.442;6.996;2024-01-10T02:33:37;101620.03;;;-1.08;29.66
4570;BME280;2297;51.442;6.996;2024-01-10T02:36:04;101621.53;;;-1.13;29.71
4570;BME280;2297;51.442;6.996;2024-01-10T02:38:31;101622.72;;;-1.25;29.84
4570;BME280;2297;51.442;6.996;2024-01-10T02:40:58;101618.34;;;-1.26;30.02
4570;BME280;2297;51.442;6.996;2024-01-10T02:43:27;101614.44;;;-1.36;30.34
4570;BME280;2297;51.442;6.996;2024-01-10T02:45:53;101608.34;;;-1.36;30.43
4570;BME280;2297;51.442;6.996;2024-01-10T02:48:20;101609.84;;;-1.23;30.53
4570;BME280;2297;51.442;6.996;2024-01-10T02:50:47;101602.50;;;-1.50;30.60
4570;BME280;2297;51.442;6.996;2024-01-10T02:53:13;101599.00;;;-1.50;30.92
4570;BME280;2297;51.442;6.996;2024-01-10T02:55:39;101609.34;;;-1.50;30.88
4570;BME280;2297;51.442;6.996;2024-01-10T02:58:06;101603.44;;;-1.48;31.16
4570;BME280;2297;51.442;6.996;2024-01-10T03:00:34;101601.09;;;-1.43;30.96
4570;BME280;2297;51.442;6.996;2024-01-10T03:03:00;101606.41;;;-1.40;30.95
4570;BME280;2297;51.442;6.996;2024-01-10T03:05:27;101601.09;;;-1.43;31.04
4570;BME280;2297;51.442;6.996;2024-01-10T03:07:53;101595.78;;;-1.46;31.13
4570;BME280;2297;51.442;6.996;2024-01-10T03:10:20;101589.75;;;-1.45;31.15
4570;BME280;2297;51.442;6.996;2024-01-10T03:12:47;101600.13;;;-1.45;31.06
4570;BME280;2297;51.442;6.996;2024-01-10T03:15:13;101591.16;;;-1.52;31.43
4570;BME280;2297;51.442;6.996;2024-01-10T03:17:41;101590.59;;;-1.46;31.51
4570;BME280;2297;51.442;6.996;2024-01-10T03:20:09;101603.72;;;-1.60;31.59
4570;BME280;2297;51.442;6.996;2024-01-10T03:22:36;101596.78;;;-1.61;31.61
4570;BME280;2297;51.442;6.996;2024-01-10T03:25:03;101587.91;;;-1.66;31.58
4570;BME280;2297;51.442;6.996;2024-01-10T03:27:30;101591.09;;;-1.72;31.80
4570;BME280;2297;51.442;6.996;2024-01-10T03:29:56;101591.09;;;-1.72;31.86
4570;BME280;2297;51.442;6.996;2024-01-10T03:32:23;101585.91;;;-1.72;31.90
4570;BME280;2297;51.442;6.996;2024-01-10T03:34:51;101582.41;;;-1.72;31.93
4570;BME280;2297;51.442;6.996;2024-01-10T03:37:17;101588.16;;;-1.78;32.16
4570;BME280;2297;51.442;6.996;2024-01-10T03:39:44;101597.47;;;-1.81;32.08
4570;BME280;2297;51.442;6.996;2024-01-10T03:42:11;101593.44;;;-1.76;32.17
4570;BME280;2297;51.442;6.996;2024-01-10T03:44:37;101588.66;;;-1.85;32.12
4570;BME280;2297;51.442;6.996;2024-01-10T03:47:04;101596.06;;;-1.93;32.37
4570;BME280;2297;51.442;6.996;2024-01-10T03:49:31;101598.41;;;-1.97;32.41
4570;BME280;2297;51.442;6.996;2024-01-10T03:51:59;101594.22;;;-1.95;32.58
4570;BME280;2297;51.442;6.996;2024-01-10T03:54:25;101591.22;;;-2.03;32.72
4570;BME280;2297;51.442;6.996;2024-01-10T03:56:52;101580.00;;;-1.86;32.66
4570;BME280;2297;51.442;6.996;2024-01-10T03:59:18;101562.53;;;-1.90;32.53
4570;BME280;2297;51.442;6.996;2024-01-10T04:01:45;101561.88;;;-1.86;32.41
4570;BME280;2297;51.442;6.996;2024-01-10T04:04:12;101556.78;;;-1.84;32.56
4570;BME280;2297;51.442;6.996;2024-01-10T04:06:38;101567.56;;;-1.93;32.59
4570;BME280;2297;51.442;6.996;2024-01-10T04:09:06;101574.03;;;-2.01;32.55
4570;BME280;2297;51.442;6.996;2024-01-10T04:11:33;101572.28;;;-2.02;32.76
4570;BME280;2297;51.442;6.996;2024-01-10T04:14:00;101575.94;;;-2.15;32.77
4570;BME280;2297;51.442;6.996;2024-01-10T04:16:26;101582.31;;;-2.08;32.42
4570;BME280;2297;51.442;6.996;2024-01-10T04:18:53;101576.75;;;-1.99;32.59
4570;BME280;2297;51.442;6.996;2024-01-10T04:21:20;101585.91;;;-2.06;32.45
4570;BME280;2297;51.442;6.996;2024-01-10T04:23:47;101586.03;;;-2.03;32.59
4570;BME280;2297;51.442;6.996;2024-01-10T04:26:15;101582.78;;;-1.99;32.56
4570;BME280;2297;51.442;6.996;2024-01-10T04:28:42;101581.66;;;-2.04;32.52
4570;BME280;2297;51.442;6.996;2024-01-10T04:31:08;101577.00;;;-2.11;32.92
4570;BME280;2297;51.442;6.996;2024-01-10T04:33:35;101575.22;;;-2.12;32.84
4570;BME280;2297;51.442;6.996;2024-01-10T04:36:01;101573.56;;;-2.10;32.70
4570;BME280;2297;51.442;6.996;2024-01-10T04:38:28;101571.97;;;-2.08;32.57
4570;BME280;2297;51.442;6.996;2024-01-10T04:40:55;101571.34;;;-2.21;32.86
4570;BME280;2297;51.442;6.996;2024-01-10T04:43:23;101569.72;;;-2.18;32.92
4570;BME280;2297;51.442;6.996;2024-01-10T04:45:49;101573.94;;;-2.21;32.95
4570;BME280;2297;51.442;6.996;2024-01-10T04:48:16;101568.41;;;-2.10;32.68
4570;BME280;2297;51.442;6.996;2024-01-10T04:50:42;101558.00;;;-2.28;32.73
4570;BME280;2297;51.442;6.996;2024-01-10T04:53:09;101565.13;;;-2.24;32.79
4570;BME280;2297;51.442;6.996;2024-01-10T04:55:35;101566.00;;;-2.24;32.88
4570;BME280;2297;51.442;6.996;2024-01-10T04:58:02;101560.81;;;-2.24;32.93
4570;BME280;2297;51.442;6.996;2024-01-10T05:00:30;101560.25;;;-2.18;32.89
4570;BME280;2297;51.442;6.996;2024-01-10T05:02:57;101557.75;;;-2.16;32.85
4570;BME280;2297;51.442;6.996;2024-01-10T05:05:23;101562.13;;;-2.32;33.07
4570;BME280;2297;51.442;6.996;2024-01-10T05:07:50;101555.81;;;-2.37;33.20
4570;BME280;2297;51.442;6.996;2024-01-10T05:10:17;101560.03;;;-2.39;33.16
4570;BME280;2297;51.442;6.996;2024-01-10T05:12:43;101552.91;;;-2.27;33.16
4570;BME280;2297;51.442;6.996;2024-01-10T05:15:10;101552.91;;;-2.27;32.95
4570;BME280;2297;51.442;6.996;2024-01-10T05:17:38;101545.28;;;-2.24;32.85
4570;BME280;2297;51.442;6.996;2024-01-10T05:20:06;101552.56;;;-2.16;32.76
4570;BME280;2297;51.442;6.996;2024-01-10T05:22:34;101557.56;;;-2.20;32.74
4570;BME280;2297;51.442;6.996;2024-01-10T05:25:01;101554.44;;;-2.30;32.97
4570;BME280;2297;51.442;6.996;2024-01-10T05:27:29;101560.91;;;-2.39;33.24
4570;BME280;2297;51.442;6.996;2024-01-10T05:29:55;101550.47;;;-2.24;33.09
4570;BME280;2297;51.442;6.996;2024-01-10T05:32:47;101552.97;;;-2.25;32.92
4570;BME280;2297;51.442;6.996;2024-01-10T05:35:14;101555.50;;;-2.27;32.78
4570;BME280;2297;51.442;6.996;2024-01-10T05:37:41;101548.38;;;-2.31;32.71
4570;BME280;2297;51.442;6.996;2024-01-10T05:40:08;101558.88;;;-2.28;32.79
4570;BME280;2297;51.442;6.996;2024-01-10T05:42:35;101558.41;;;-2.21;32.78
4570;BME280;2297;51.442;6.996;2024-01-10T05:45:03;101555.16;;;-2.16;32.72
4570;BME280;2297;51.442;6.996;2024-01-10T05:47:31;101564.84;;;-2.12;32.59
4570;BME280;2297;51.442;6.996;2024-01-10T05:49:59;101564.72;;;-2.15;32.56
4570;BME280;2297;51.442;6.996;2024-01-10T05:52:25;101563.47;;;-2.22;32.72
4570;BME280;2297;51.442;6.996;2024-01-10T05:54:52;101562.59;;;-2.06;32.58
4570;BME280;2297;51.442;6.996;2024-01-10T05:57:19;101565.00;;;-2.09;32.53
4570;BME280;2297;51.442;6.996;2024-01-10T05:59:47;101560.66;;;-2.27;32.71
4570;BME280;2297;51.442;6.996;2024-01-10T06:02:13;101559.88;;;-2.26;32.75
4570;BME280;2297;51.442;6.996;2024-01-10T06:04:41;101554.09;;;-2.20;32.80
4570;BME280;2297;51.442;6.996;2024-01-10T06:07:09;101553.53;;;-2.14;32.69
4570;BME280;2297;51.442;6.996;2024-01-10T06:09:36;101557.91;;;-2.13;32.69
4570;BME280;2297;51.442;6.996;2024-01-10T06:12:03;101552.06;;;-2.09;32.68
4570;BME280;2297;51.442;6.996;2024-01-10T06:14:30;101554.97;;;-2.03;32.70
4570;BME280;2297;51.442;6.996;2024-01-10T06:16:57;101559.81;;;-2.09;32.58
4570;BME280;2297;51.442;6.996;2024-01-10T06:19:25;101567.66;;;-2.08;32.65
4570;BME280;2297;51.442;6.996;2024-01-10T06:21:51;101559.34;;;-2.02;32.61
4570;BME280;2297;51.442;6.996;2024-01-10T06:24:19;101557.56;;;-2.03;32.73
4570;BME280;2297;51.442;6.996;2024-01-10T06:26:46;101552.88;;;-2.10;32.64
4570;BME280;2297;51.442;6.996;2024-01-10T06:29:14;101554.06;;;-2.04;32.61
4570;BME280;2297;51.442;6.996;2024-01-10T06:31:41;101554.63;;;-1.93;32.49
4570;BME280;2297;51.442;6.996;2024-01-10T06:34:08;101562.59;;;-2.06;32.72
4570;BME280;2297;51.442;6.996;2024-01-10T06:36:35;101564.78;;;-2.14;32.88
4570;BME280;2297;51.442;6.996;2024-01-10T06:39:01;101564.06;;;-2.11;32.91
4570;BME280;2297;51.442;6.996;2024-01-10T06:41:29;101572.94;;;-2.06;32.84
4570;BME280;2297;51.442;6.996;2024-01-10T06:43:57;101574.47;;;-2.10;32.76
4570;BME280;2297;51.442;6.996;2024-01-10T06:46:23;101574.47;;;-2.10;32.76
4570;BME280;2297;51.442;6.996;2024-01-10T06:48:50;101571.97;;;-2.08;32.53
4570;BME280;2297;51.442;6.996;2024-01-10T06:51:17;101568.09;;;-2.16;32.59
4570;BME280;2297;51.442;6.996;2024-01-10T06:53:43;101563.59;;;-2.21;32.69
4570;BME280;2297;51.442;6.996;2024-01-10T06:56:10;101563.22;;;-2.10;32.76
4570;BME280;2297;51.442;6.996;2024-01-10T06:58:38;101561.28;;;-2.14;32.69
4570;BME280;2297;51.442;6.996;2024-01-10T07:01:10;101554.19;;;-2.18;32.51
4570;BME280;2297;51.442;6.996;2024-01-10T07:03:39;101557.69;;;-2.18;32.70
4570;BME280;2297;51.442;6.996;2024-01-10T07:06:05;101555.09;;;-2.18;32.77
4570;BME280;2297;51.442;6.996;2024-01-10T07:08:32;101561.94;;;-2.18;32.88
4570;BME280;2297;51.442;6.996;2024-01-10T07:10:58;101567.78;;;-2.23;32.78
4570;BME280;2297;51.442;6.996;2024-01-10T07:13:25;101566.00;;;-2.24;32.87
4570;BME280;2297;51.442;6.996;2024-01-10T07:15:53;101568.84;;;-2.19;32.92
4570;BME280;2297;51.442;6.996;2024-01-10T07:18:20;101565.44;;;-2.18;32.67
4570;BME280;2297;51.442;6.996;2024-01-10T07:20:47;101567.63;;;-2.26;32.84
4570;BME280;2297;51.442;6.996;2024-01-10T07:23:13;101562.19;;;-2.14;32.59
4570;BME280;2297;51.442;6.996;2024-01-10T07:25:40;101555.97;;;-2.17;32.75
4570;BME280;2297;51.442;6.996;2024-01-10T07:28:07;101559.06;;;-2.25;32.93
4570;BME280;2297;51.442;6.996;2024-01-10T07:30:33;101563.66;;;-2.19;32.77
4570;BME280;2297;51.442;6.996;2024-01-10T07:33:01;101566.19;;;-2.21;32.84
4570;BME280;2297;51.442;6.996;2024-01-10T07:35:28;101561.00;;;-2.37;32.77
4570;BME280;2297;51.442;6.996;2024-01-10T07:37:55;101562.28;;;-2.29;33.09
4570;BME280;2297;51.442;6.996;2024-01-10T07:40:22;101570.22;;;-2.26;33.03
4570;BME280;2297;51.442;6.996;2024-01-10T07:42:48;101569.41;;;-2.25;32.66
4570;BME280;2297;51.442;6.996;2024-01-10T07:45:15;101567.78;;;-2.23;33.23
4570;BME280;2297;51.442;6.996;2024-01-10T07:47:42;101564.31;;;-2.23;32.88
4570;BME280;2297;51.442;6.996;2024-01-10T07:50:10;101560.66;;;-2.27;33.10
4570;BME280;2297;51.442;6.996;2024-01-10T07:52:39;101556.69;;;-2.20;33.21
4570;BME280;2297;51.442;6.996;2024-01-10T07:55:07;101558.41;;;-2.21;33.24
4570;BME280;2297;51.442;6.996;2024-01-10T07:57:34;101555.81;;;-2.21;33.32
4570;BME280;2297;51.442;6.996;2024-01-10T08:00:02;101557.56;;;-2.20;33.10
4570;BME280;2297;51.442;6.996;2024-01-10T08:02:29;101558.97;;;-2.26;33.22
4570;BME280;2297;51.442;6.996;2024-01-10T08:04:59;101556.69;;;-2.20;33.12
4570;BME280;2297;51.442;6.996;2024-01-10T08:07:27;101568.25;;;-2.13;32.90
4570;BME280;2297;51.442;6.996;2024-01-10T08:09:53;101557.44;;;-2.23;33.24
4570;BME280;2297;51.442;6.996;2024-01-10T08:12:20;101565.66;;;-2.13;33.64
4570;BME280;2297;51.442;6.996;2024-01-10T08:14:47;101557.09;;;-2.29;35.19
4570;BME280;2297;51.442;6.996;2024-01-10T08:17:15;101562.75;;;-2.20;33.40
4570;BME280;2297;51.442;6.996;2024-01-10T08:19:42;101561.75;;;-2.05;33.23
4570;BME280;2297;51.442;6.996;2024-01-10T08:22:08;101562.66;;;-2.05;32.57
4570;BME280;2297;51.442;6.996;2024-01-10T08:24:36;101554.50;;;-2.12;32.67
4570;BME280;2297;51.442;6.996;2024-01-10T08:27:03;101567.13;;;-2.02;32.91
4570;BME280;2297;51.442;6.996;2024-01-10T08:29:30;101567.25;;;-1.99;32.60
4570;BME280;2297;51.442;6.996;2024-01-10T08:31:57;101563.19;;;-1.94;32.56
4570;BME280;2297;51.442;6.996;2024-01-10T08:34:24;101570.00;;;-1.96;32.49
4570;BME280;2297;51.442;6.996;2024-01-10T08:36:51;101560.75;;;-1.91;32.62
4570;BME280;2297;51.442;6.996;2024-01-10T08:39:18;101564.16;;;-1.92;32.63
4570;BME280;2297;51.442;6.996;2024-01-10T08:41:46;101564.31;;;-1.89;32.38
4570;BME280;2297;51.442;6.996;2024-01-10T08:44:13;101560.75;;;-1.91;32.33
4570;BME280;2297;51.442;6.996;2024-01-10T08:46:39;101565.66;;;-1.79;32.37
4570;BME280;2297;51.442;6.996;2024-01-10T08:49:06;101562.66;;;-1.70;32.25
4570;BME280;2297;51.442;6.996;2024-01-10T08:51:32;101565.72;;;-1.77;32.41
4570;BME280;2297;51.442;6.996;2024-01-10T08:53:59;101568.78;;;-1.68;32.19
4570;BME280;2297;51.442;6.996;2024-01-10T08:56:26;101567.84;;;-1.70;32.44
4570;BME280;2297;51.442;6.996;2024-01-10T08:58:54;101569.22;;;-1.59;32.39
4570;BME280;2297;51.442;6.996;2024-01-10T09:01:21;101572.81;;;-1.57;32.23
4570;BME280;2297;51.442;6.996;2024-01-10T09:03:48;101576.50;;;-1.51;32.48
4570;BME280;2297;51.442;6.996;2024-01-10T09:06:15;101577.38;;;-1.51;32.52
4570;BME280;2297;51.442;6.996;2024-01-10T09:08:42;101580.22;;;-1.46;32.08
4570;BME280;2297;51.442;6.996;2024-01-10T09:11:09;101580.50;;;-1.40;31.98
4570;BME280;2297;51.442;6.996;2024-01-10T09:13:35;101584.81;;;-1.41;32.14
4570;BME280;2297;51.442;6.996;2024-01-10T09:16:05;101584.34;;;-1.32;32.01
4570;BME280;2297;51.442;6.996;2024-01-10T09:18:31;101586.44;;;-1.25;31.97
4570;BME280;2297;51.442;6.996;2024-01-10T09:20:58;101594.50;;;-1.37;31.88
4570;BME280;2297;51.442;6.996;2024-01-10T09:23:24;101593.53;;;-1.39;32.21
4570;BME280;2297;51.442;6.996;2024-01-10T09:25:53;101586.88;;;-1.33;31.99
4570;BME280;2297;51.442;6.996;2024-01-10T09:28:20;101587.38;;;-1.23;31.86
4570;BME280;2297;51.442;6.996;2024-01-10T09:30:47;101594.78;;;-1.12;31.60
4570;BME280;2297;51.442;6.996;2024-01-10T09:33:15;101589.66;;;-1.11;31.57
4570;BME280;2297;51.442;6.996;2024-01-10T09:35:42;101590.56;;;-1.10;31.37
4570;BME280;2297;51.442;6.996;2024-01-10T09:38:08;101584.94;;;-1.20;31.51
4570;BME280;2297;51.442;6.996;2024-01-10T09:40:35;101589.75;;;-1.09;31.36
4570;BME280;2297;51.442;6.996;2024-01-10T09:43:03;101589.84;;;-1.08;31.49
4570;BME280;2297;51.442;6.996;2024-01-10T09:45:31;101586.88;;;-0.97;31.50
4570;BME280;2297;51.442;6.996;2024-01-10T09:48:01;101590.25;;;-0.98;31.52
4570;BME280;2297;51.442;6.996;2024-01-10T09:50:29;101594.41;;;-0.84;31.37
4570;BME280;2297;51.442;6.996;2024-01-10T09:53:05;101587.19;;;-0.90;31.46
4570;BME280;2297;51.442;6.996;2024-01-10T09:55:34;101581.31;;;-0.86;31.32
4570;BME280;2297;51.442;6.996;2024-01-10T09:58:02;101582.31;;;-0.83;31.13
4570;BME280;2297;51.442;6.996;2024-01-10T10:00:30;101575.81;;;-0.74;31.28
4570;BME280;2297;51.442;6.996;2024-01-10T10:02:58;101578.97;;;-0.81;31.27
4570;BME280;2297;51.442;6.996;2024-01-10T10:05:25;101573.09;;;-0.77;31.31
4570;BME280;2297;51.442;6.996;2024-01-10T10:07:53;101575.22;;;-0.68;31.10
4570;BME280;2297;51.442;6.996;2024-01-10T10:10:20;101581.66;;;-0.60;31.03
4570;BME280;2297;51.442;6.996;2024-01-10T10:12:48;101581.66;;;-0.60;30.87
4570;BME280;2297;51.442;6.996;2024-01-10T10:15:17;101580.69;;;-0.62;31.06
4570;BME280;2297;51.442;6.996;2024-01-10T10:17:45;101586.28;;;-0.53;30.84
4570;BME280;2297;51.442;6.996;2024-01-10T10:20:14;101576.47;;;-0.40;30.77
4570;BME280;2297;51.442;6.996;2024-01-10T10:22:58;101575.50;;;-0.42;30.63
4570;BME280;2297;51.442;6.996;2024-01-10T10:25:27;101575.38;;;-0.26;30.58
4570;BME280;2297;51.442;6.996;2024-01-10T10:27:55;101576.03;;;-0.30;30.43
4570;BME280;2297;51.442;6.996;2024-01-10T10:30:21;101574.00;;;-0.17;30.46
4570;BME280;2297;51.442;6.996;2024-01-10T10:32:48;101567.78;;;-0.21;30.46
4570;BME280;2297;51.442;6.996;2024-01-10T10:35:15;101570.75;;;-0.12;30.38
4570;BME280;2297;51.442;6.996;2024-01-10T10:37:42;101573.75;;;-0.03;30.40
4570;BME280;2297;51.442;6.996;2024-01-10T10:40:11;101580.09;;;0.04;30.04
4570;BME280;2297;51.442;6.996;2024-01-10T10:42:42;101573.38;;;0.09;29.99
4570;BME280;2297;51.442;6.996;2024-01-10T10:45:14;101571.44;;;0.25;30.09
4570;BME280;2297;51.442;6.996;2024-01-10T10:47:43;101557.06;;;0.33;29.96
4570;BME280;2297;51.442;6.996;2024-01-10T10:50:20;101562.25;;;0.33;30.09
4570;BME280;2297;51.442;6.996;2024-01-10T10:52:48;101560.47;;;0.32;30.06
4570;BME280;2297;51.442;6.996;2024-01-10T10:55:17;101557.16;;;0.36;29.94
4570;BME280;2297;51.442;6.996;2024-01-10T10:57:44;101555.25;;;0.53;29.77
4570;BME280;2297;51.442;6.996;2024-01-10T11:00:12;101555.47;;;0.58;29.79
4570;BME280;2297;51.442;6.996;2024-01-10T11:02:40;101556.44;;;0.61;29.62
4570;BME280;2297;51.442;6.996;2024-01-10T11:05:09;101563.78;;;0.72;29.59
4570;BME280;2297;51.442;6.996;2024-01-10T11:07:36;101551.59;;;0.71;29.31
4570;BME280;2297;51.442;6.996;2024-01-10T11:10:04;101546.91;;;0.83;29.27
4570;BME280;2297;51.442;6.996;2024-01-10T11:12:51;101551.44;;;0.89;29.27
4570;BME280;2297;51.442;6.996;2024-01-10T11:15:37;101546.34;;;0.92;29.16
4570;BME280;2297;51.442;6.996;2024-01-10T11:18:22;101553.94;;;1.08;29.05
4570;BME280;2297;51.442;6.996;2024-01-10T11:21:05;101541.63;;;1.04;28.84
4570;BME280;2297;51.442;6.996;2024-01-10T11:23:40;101548.84;;;1.11;28.70
4570;BME280;2297;51.442;6.996;2024-01-10T11:26:10;101553.69;;;1.25;28.55
4570;BME280;2297;51.442;6.996;2024-01-10T11:28:39;101544.75;;;1.41;28.39
4570;BME280;2297;51.442;6.996;2024-01-10T11:31:07;101543.09;;;1.43;28.38
4570;BME280;2297;51.442;6.996;2024-01-10T11:33:35;101551.63;;;1.39;28.43
4570;BME280;2297;51.442;6.996;2024-01-10T11:36:09;101548.22;;;1.41;28.43
4570;BME280;2297;51.442;6.996;2024-01-10T11:38:44;101548.28;;;1.67;28.23
4570;BME280;2297;51.442;6.996;2024-01-10T11:41:11;101541.19;;;1.63;28.05
4570;BME280;2297;51.442;6.996;2024-01-10T11:43:39;101533.81;;;1.75;27.97
4570;BME280;2297;51.442;6.996;2024-01-10T11:46:06;101525.72;;;1.92;28.05
4570;BME280;2297;51.442;6.996;2024-01-10T11:48:34;101524.44;;;1.80;28.11
4570;BME280;2297;51.442;6.996;2024-01-10T11:51:02;101530.00;;;1.91;27.96
4570;BME280;2297;51.442;6.996;2024-01-10T11:53:40;101515.16;;;2.14;27.75
4570;BME280;2297;51.442;6.996;2024-01-10T11:56:12;101521.31;;;2.17;27.53
4570;BME280;2297;51.442;6.996;2024-01-10T11:58:55;101508.03;;;2.36;27.57
4570;BME280;2297;51.442;6.996;2024-01-10T12:01:22;101505.38;;;2.35;27.41
4570;BME280;2297;51.442;6.996;2024-01-10T12:03:51;101506.47;;;2.41;26.94
4570;BME280;2297;51.442;6.996;2024-01-10T12:06:19;101507.63;;;2.51;27.07
4570;BME280;2297;51.442;6.996;2024-01-10T12:08:47;101506.75;;;2.51;27.07
4570;BME280;2297;51.442;6.996;2024-01-10T12:11:13;101514.66;;;2.81;26.87
4570;BME280;2297;51.442;6.996;2024-01-10T12:13:41;101514.13;;;2.93;26.76
4570;BME280;2297;51.442;6.996;2024-01-10T12:16:10;101504.34;;;3.16;26.76
4570;BME280;2297;51.442;6.996;2024-01-10T12:18:36;101507.19;;;3.24;26.49
4570;BME280;2297;51.442;6.996;2024-01-10T12:21:03;101510.94;;;3.34;26.35
4570;BME280;2297;51.442;6.996;2024-01-10T12:23:31;101514.34;;;3.31;26.52
4570;BME280;2297;51.442;6.996;2024-01-10T12:26:01;101518.38;;;3.50;26.61
4570;BME280;2297;51.442;6.996;2024-01-10T12:28:28;101512.66;;;3.65;26.33
4570;BME280;2297;51.442;6.996;2024-01-10T12:30:55;101509.44;;;3.74;26.25
4570;BME280;2297;51.442;6.996;2024-01-10T12:33:23;101510.13;;;3.68;26.10
4570;BME280;2297;51.442;6.996;2024-01-10T12:36:04;101502.38;;;3.71;26.45
4570;BME280;2297;51.442;6.996;2024-01-10T12:38:32;101500.44;;;3.64;26.35
4570;BME280;2297;51.442;6.996;2024-01-10T12:40:59;101507.97;;;3.84;26.06
4570;BME280;2297;51.442;6.996;2024-01-10T12:43:27;101512.69;;;3.98;26.68
4570;BME280;2297;51.442;6.996;2024-01-10T12:46:03;101506.88;;;4.10;26.31
4570;BME280;2297;51.442;6.996;2024-01-10T12:48:31;101506.25;;;4.19;26.84
4570;BME280;2297;51.442;6.996;2024-01-10T12:51:01;101499.56;;;4.30;26.22
4570;BME280;2297;51.442;6.996;2024-01-10T12:53:31;101498.41;;;4.19;25.60
4570;BME280;2297;51.442;6.996;2024-01-10T12:55:58;101498.66;;;4.30;25.68
4570;BME280;2297;51.442;6.996;2024-01-10T12:58:48;101495.56;;;4.46;25.63
4570;BME280;2297;51.442;6.996;2024-01-10T13:04:45;101506.34;;;4.60;25.33
4570;BME280;2297;51.442;6.996;2024-01-10T13:07:12;101505.50;;;4.61;25.30
4570;BME280;2297;51.442;6.996;2024-01-10T13:09:38;101503.69;;;4.59;24.87
4570;BME280;2297;51.442;6.996;2024-01-10T13:12:06;101510.44;;;4.49;24.98
4570;BME280;2297;51.442;6.996;2024-01-10T13:14:33;101502.47;;;4.44;25.04
4570;BME280;2297;51.442;6.996;2024-01-10T13:16:59;101505.66;;;4.69;24.90
4570;BME280;2297;51.442;6.996;2024-01-10T13:19:26;101508.28;;;4.69;24.99
4570;BME280;2297;51.442;6.996;2024-01-10T13:21:54;101504.72;;;4.67;24.94